Gowrie, Iowa
Current Conditions -  °F | °C
As of 11:35 AM on Monday 22 Dec 2014 (Local Time) from KFOD Reporting Station
Overcast Overcast  
Wind Chill: 34°   Ceiling: 600
Heat Index: 39°   Visibility: 5mi
Dew Point: 36°   Wind: 7mph
Humidity: 87%   Direction: 140°SE
Pressure: 29.55"   Gusts: NA
Location:  42.28°N, 94.29°W
Report Text: KFOD 221735Z AUTO 14006KT 5SM OVC006 04/02 A2955 RMK AO1
Loading
Personal Weather Stations






























Interactive Weather Map New forecast layout! Learn more

10-Day Weather Forecast

Advertisements
Track Severe Weather on mobile